createdAt,value
2022-09-19T00:02:46.634Z,7.63
2022-09-19T00:07:48.924Z,7.51
2022-09-19T00:12:50.505Z,7.32
2022-09-19T00:17:52.241Z,7.11
2022-09-19T00:23:12.193Z,6.97
2022-09-19T00:28:13.736Z,6.79
2022-09-19T00:33:15.365Z,6.64
2022-09-19T00:38:16.893Z,6.55
2022-09-19T00:43:20.557Z,6.43
2022-09-19T00:48:23.707Z,6.35
2022-09-19T00:53:26.069Z,6.27
2022-09-19T00:58:32.275Z,6.21
2022-09-19T01:03:34.311Z,6.13
2022-09-19T01:08:54.053Z,6.08
2022-09-19T01:14:09.384Z,6.04
2022-09-19T01:19:29.253Z,5.97
2022-09-19T01:24:44.226Z,5.93
2022-09-19T01:29:51.877Z,5.90
2022-09-19T01:35:00.921Z,5.88
2022-09-19T01:40:06.623Z,5.88
2022-09-19T01:45:16.889Z,5.84
2022-09-19T01:50:32.849Z,5.84
2022-09-19T01:56:12.968Z,5.82
2022-09-19T02:01:24.335Z,5.74
2022-09-19T02:06:49.159Z,5.71
2022-09-19T02:11:53.153Z,5.66
2022-09-19T02:17:09.134Z,5.65
2022-09-19T02:22:21.185Z,5.62
2022-09-19T02:27:30.506Z,5.59
2022-09-19T02:32:36.093Z,5.54
2022-09-19T02:37:55.754Z,5.52
2022-09-19T02:43:04.701Z,5.51
2022-09-19T02:49:02.742Z,5.52
2022-09-19T02:54:11.798Z,5.50
2022-09-19T02:59:19.533Z,5.54
2022-09-19T03:04:33.298Z,5.56
2022-09-19T03:09:36.054Z,5.69
2022-09-19T03:14:43.179Z,5.82
2022-09-19T03:19:49.038Z,5.91
2022-09-19T03:24:51.475Z,5.90
2022-09-19T03:29:53.141Z,5.88
2022-09-19T03:34:56.265Z,5.88
2022-09-19T03:39:59.994Z,5.87
2022-09-19T03:45:03.012Z,5.85
2022-09-19T03:50:07.371Z,5.95
2022-09-19T03:55:15.528Z,6.09
2022-09-19T04:00:17.809Z,6.23
2022-09-19T04:05:19.355Z,6.41
2022-09-19T04:10:21.782Z,6.56
2022-09-19T04:15:23.404Z,6.74
2022-09-19T04:20:28.280Z,6.75
2022-09-19T04:25:40.337Z,6.67
2022-09-19T04:30:48.499Z,6.61
2022-09-19T04:35:50.166Z,6.51
2022-09-19T04:40:57.982Z,6.48
2022-09-19T04:46:02.473Z,6.43
2022-09-19T04:51:12.490Z,6.51
2022-09-19T04:56:14.103Z,6.53
2022-09-19T05:01:17.452Z,6.53
2022-09-19T05:06:19.378Z,6.57
2022-09-19T05:11:23.076Z,6.66
2022-09-19T05:16:25.299Z,6.86
2022-09-19T05:21:34.682Z,7.07
2022-09-19T05:26:40.731Z,7.28
2022-09-19T05:31:48.373Z,7.44
2022-09-19T05:37:22.583Z,7.60
2022-09-19T05:42:49.327Z,7.77
2022-09-19T05:47:51.842Z,7.94
2022-09-19T05:53:12.655Z,8.11
2022-09-19T05:58:16.257Z,8.28
2022-09-19T06:03:21.254Z,8.43
2022-09-19T06:08:23.739Z,8.53
2022-09-19T06:13:46.938Z,8.67
2022-09-19T06:18:50.211Z,8.88
2022-09-19T06:23:51.937Z,9.06
2022-09-19T06:28:53.771Z,9.24
2022-09-19T06:33:55.386Z,9.46
2022-09-19T06:39:00.937Z,9.67
2022-09-19T06:44:28.737Z,9.95
2022-09-19T06:49:49.425Z,10.14
2022-09-19T06:55:09.177Z,10.32
2022-09-19T07:00:12.894Z,10.49
2022-09-19T07:05:14.607Z,10.74
2022-09-19T07:10:22.566Z,11.01
2022-09-19T07:15:24.858Z,11.16
2022-09-19T07:20:28.207Z,11.28
2022-09-19T07:25:33.270Z,11.45
2022-09-19T07:30:36.866Z,11.51
2022-09-19T07:35:42.174Z,11.62
2022-09-19T07:40:43.906Z,11.63
2022-09-19T07:45:56.631Z,11.77
2022-09-19T07:51:25.532Z,12.03
2022-09-19T07:56:27.698Z,12.15
2022-09-19T08:01:30.091Z,12.34
2022-09-19T08:06:41.469Z,12.46
2022-09-19T08:11:44.843Z,12.57
2022-09-19T08:16:47.068Z,12.80
2022-09-19T08:21:51.859Z,13.10
2022-09-19T08:26:53.771Z,13.38
2022-09-19T08:31:56.788Z,13.75
2022-09-19T08:37:01.407Z,14.30
2022-09-19T08:42:26.707Z,14.43
2022-09-19T08:47:33.565Z,14.36
2022-09-19T08:52:47.030Z,14.32
2022-09-19T08:57:55.436Z,14.29
2022-09-19T09:03:10.664Z,14.50
2022-09-19T09:08:35.863Z,14.66
2022-09-19T09:14:04.895Z,14.79
2022-09-19T09:19:18.237Z,14.93
2022-09-19T09:24:34.649Z,15.05
2022-09-19T09:29:52.263Z,15.03
2022-09-19T09:35:45.892Z,15.09
2022-09-19T09:41:17.171Z,15.36
2022-09-19T09:46:31.011Z,15.72
2022-09-19T09:51:47.715Z,16.19
2022-09-19T09:56:56.086Z,16.79
2022-09-19T10:02:20.934Z,17.11
2022-09-19T10:08:02.870Z,17.40
2022-09-19T10:13:28.230Z,17.34
2022-09-19T10:18:43.425Z,17.48
2022-09-19T10:23:49.245Z,17.67
2022-09-19T10:29:03.711Z,17.84
2022-09-19T10:34:37.423Z,18.19
2022-09-19T10:40:02.188Z,18.30
2022-09-19T10:45:27.039Z,18.71
2022-09-19T10:50:30.854Z,19.07
2022-09-19T10:55:44.517Z,19.21
2022-09-19T11:00:52.674Z,18.94
2022-09-19T11:06:04.383Z,18.92
2022-09-19T11:11:26.804Z,19.05
2022-09-19T11:16:40.014Z,19.12
2022-09-19T11:22:00.575Z,19.19
2022-09-19T11:27:25.859Z,19.36
2022-09-19T11:33:01.103Z,19.06
2022-09-19T11:44:13.542Z,19.05
2022-09-19T11:49:53.473Z,18.55
2022-09-19T11:55:01.051Z,18.76
2022-09-19T12:00:14.478Z,18.53
2022-09-19T12:05:32.612Z,18.32
2022-09-19T12:10:40.907Z,18.26
2022-09-19T12:15:49.259Z,18.14
2022-09-19T12:20:56.695Z,18.22
2022-09-19T12:26:00.438Z,18.28
2022-09-19T12:31:07.305Z,18.05
2022-09-19T12:36:43.943Z,17.74
2022-09-19T12:41:56.763Z,17.81
2022-09-19T12:47:05.624Z,17.68
2022-09-19T12:52:40.510Z,17.49
2022-09-19T12:57:51.895Z,17.48
2022-09-19T13:03:14.495Z,17.73
2022-09-19T13:08:55.112Z,17.31
2022-09-19T13:14:05.158Z,16.40
2022-09-19T13:19:30.674Z,16.15
2022-09-19T13:24:41.402Z,16.03
2022-09-19T13:29:46.296Z,16.28
2022-09-19T13:35:07.272Z,16.70
2022-09-19T13:40:25.761Z,17.11
2022-09-19T13:45:55.340Z,17.17
2022-09-19T13:51:06.982Z,17.01
2022-09-19T13:56:37.703Z,17.06
2022-09-19T14:01:42.299Z,16.85
2022-09-19T14:12:44.457Z,16.49
2022-09-19T14:18:10.867Z,16.29
2022-09-19T14:23:13.313Z,16.32
2022-09-19T14:28:29.943Z,16.20
2022-09-19T14:33:55.607Z,15.85
2022-09-19T14:39:16.115Z,15.76
2022-09-19T14:44:48.049Z,15.74
2022-09-19T14:50:01.705Z,15.79
2022-09-19T14:55:14.329Z,16.10
2022-09-19T15:00:23.961Z,16.27
2022-09-19T15:05:30.703Z,16.24
2022-09-19T15:10:39.509Z,16.20
2022-09-19T15:15:44.541Z,16.11
2022-09-19T15:20:48.091Z,15.92
2022-09-19T15:25:56.435Z,15.71
2022-09-19T15:31:01.310Z,15.53
2022-09-19T15:36:04.363Z,15.49
2022-09-19T15:41:08.726Z,15.24
2022-09-19T15:46:46.902Z,14.95
2022-09-19T15:51:57.510Z,14.77
2022-09-19T15:57:14.263Z,14.68
2022-09-19T16:02:21.431Z,14.72
2022-09-19T16:07:49.494Z,14.79
2022-09-19T16:12:52.632Z,14.91
2022-09-19T16:17:57.017Z,15.02
2022-09-19T16:23:21.113Z,15.08
2022-09-19T16:28:30.078Z,15.02
2022-09-19T16:33:36.315Z,14.84
2022-09-19T16:38:37.961Z,14.54
2022-09-19T16:43:44.065Z,14.29
2022-09-19T16:48:45.560Z,14.14
2022-09-19T16:53:47.629Z,14.06
2022-09-19T16:58:49.251Z,13.89
2022-09-19T17:03:50.806Z,13.63
2022-09-19T17:08:52.335Z,13.29
2022-09-19T17:13:53.870Z,13.06
2022-09-19T17:18:55.779Z,12.83
2022-09-19T17:23:57.333Z,12.56
2022-09-19T17:28:58.877Z,12.34
2022-09-19T17:34:02.511Z,12.05
2022-09-19T17:39:04.921Z,11.76
2022-09-19T17:44:09.767Z,11.52
2022-09-19T17:49:11.331Z,11.42
2022-09-19T17:54:14.542Z,11.37
2022-09-19T17:59:16.455Z,11.29
2022-09-19T18:04:18.413Z,11.22
2022-09-19T18:09:20.254Z,11.10
2022-09-19T18:14:22.667Z,10.93
2022-09-19T18:19:26.509Z,10.69
2022-09-19T18:24:27.994Z,10.47
2022-09-19T18:29:32.151Z,10.31
2022-09-19T18:34:33.710Z,10.12
2022-09-19T18:39:35.213Z,9.94
2022-09-19T18:44:36.764Z,9.76
2022-09-19T18:49:38.262Z,9.55
2022-09-19T18:54:39.764Z,9.39
2022-09-19T18:59:41.283Z,9.26
2022-09-19T19:04:42.786Z,9.09
2022-09-19T19:09:44.301Z,8.88
2022-09-19T19:14:56.097Z,8.76
2022-09-19T19:19:57.577Z,8.59
2022-09-19T19:24:59.080Z,8.47
2022-09-19T19:30:00.578Z,8.42
2022-09-19T19:35:02.097Z,8.44
2022-09-19T19:40:05.989Z,8.53
2022-09-19T19:45:07.643Z,8.62
2022-09-19T19:50:09.414Z,8.66
2022-09-19T19:55:12.796Z,8.64
2022-09-19T20:00:14.770Z,8.66
2022-09-19T20:05:16.279Z,8.77
2022-09-19T20:10:20.638Z,8.77
2022-09-19T20:15:22.375Z,8.68
2022-09-19T20:20:23.867Z,8.60
2022-09-19T20:25:26.971Z,8.59
2022-09-19T20:30:31.968Z,8.54
2022-09-19T20:35:36.375Z,8.49
2022-09-19T20:40:38.022Z,8.45
2022-09-19T20:45:39.648Z,8.31
2022-09-19T20:50:52.690Z,8.19
2022-09-19T20:55:54.367Z,8.11
2022-09-19T21:01:00.860Z,8.03
2022-09-19T21:06:03.504Z,7.94
2022-09-19T21:11:07.950Z,7.87
2022-09-19T21:16:15.070Z,7.71
2022-09-19T21:21:19.217Z,7.64
2022-09-19T21:26:28.215Z,7.52
2022-09-19T21:31:32.209Z,7.41
2022-09-19T21:36:36.936Z,7.40
2022-09-19T21:41:38.509Z,7.31
2022-09-19T21:46:40.021Z,7.14
2022-09-19T21:51:41.533Z,7.18
2022-09-19T21:56:43.119Z,7.16
2022-09-19T22:01:44.733Z,7.08
2022-09-19T22:06:46.258Z,7.05
2022-09-19T22:11:47.800Z,6.98
2022-09-19T22:16:49.348Z,6.91
2022-09-19T22:21:50.879Z,6.85
2022-09-19T22:26:52.366Z,6.73
2022-09-19T22:31:54.001Z,6.70
2022-09-19T22:36:55.576Z,6.64
2022-09-19T22:41:57.067Z,6.50
2022-09-19T22:46:59.666Z,6.46
2022-09-19T22:52:02.042Z,6.44
2022-09-19T22:57:03.658Z,6.37
2022-09-19T23:02:05.725Z,6.33
2022-09-19T23:07:07.294Z,6.27
2022-09-19T23:12:08.778Z,6.20
2022-09-19T23:17:12.462Z,6.04
2022-09-19T23:22:13.975Z,5.98
2022-09-19T23:27:15.474Z,5.98
2022-09-19T23:32:16.973Z,5.94
2022-09-19T23:37:18.489Z,5.89
2022-09-19T23:42:19.977Z,5.81
2022-09-19T23:47:21.457Z,5.65
2022-09-19T23:52:23.031Z,5.61
2022-09-19T23:57:24.698Z,5.58
